Weather observations for the past three days for
Boone Municipal
Metric (Imperial)
Date Time (cdt) Wind (kph) Vis. (km) Weather Sky Cond. Temperature (ºC) Relative Humidity Wind Chill (°C) Heat Index (°C) Pressure Precipitation (cm)
Air Dwpt 6 hour altimeter (cm) sea level (mb) 1 hr 3 hr 6 hr
Max. Min.
08 06:55 SE 6 16.09 Fair CLR 8 -1 53% 75.67 0.0
08 06:35 Calm 16.09 Fair CLR 6 -2 57% 75.67 0.0
08 06:15 S 6 16.09 Fair CLR 6 -3 53% 75.67 0.0
08 05:55 S 7 0.00 Fair CLR 7 -4 46% 6 75.69 0.0
08 05:35 S 7 16.09 Fair CLR 8 -4 43% 7 75.69 0.0
08 05:15 SE 7 16.09 NULL NULL 8 -4 43% 7 75.69 0.0
08 04:55 SE 6 16.09 NULL NULL 8 -4 43% 75.69 0.0
08 04:35 SE 6 16.09 NULL NULL 8 -4 43% 75.69 0.0
08 04:15 SE 6 16.09 A Few Clouds FEW047 FEW055 8 -3 46% 75.69 0.0
08 03:55 SE 7 16.09 Fair CLR 9 -4 40% 8 75.69 0.0
08 03:35 SE 9 16.09 Fair CLR 9 -4 40% 8 75.69 0.0
08 03:15 SE 11 16.09 NULL NULL 9 -4 40% 8 75.69 0.0
08 02:35 E 7 16.09 NULL NULL 8 -4 43% 7 75.72 0.0
08 02:15 E 9 16.09 NULL NULL 9 -4 40% 8 75.74 0.0
08 01:55 E 9 16.09 Fair CLR 8 -3 46% 7 75.72 0.0
08 01:35 E 7 16.09 Fair CLR 8 -3 46% 7 75.72 0.0
08 01:15 E 9 16.09 Fair CLR 8 -4 43% 7 75.74 0.0
08 00:55 E 15 16.09 Fair CLR 8 -3 46% 6 75.74 0.0
08 00:35 E 17 16.09 Fair CLR 9 -3 43% 7 75.74 0.0
08 00:15 E 15 16.09 Fair CLR 8 -3 46% 6 75.74 0.0
07 23:55 E 13 16.09 A Few Clouds FEW080 9 -3 43% 7 75.77 0.0
07 23:35 E 7 16.09 Partly Cloudy SCT080 9 -3 43% 8 75.77 0.0
07 23:15 E 9 16.09 Fair CLR 9 -4 40% 8 75.77 0.0
07 22:55 NE 11 16.09 Fair CLR 11 -4 35% 75.77 0.0
07 22:35 NE 13 16.09 Fair CLR 11 -4 35% 75.74 0.0
07 21:55 N 13 16.09 A Few Clouds FEW040 FEW085 13 -3 33% 75.74 0.0
07 21:35 N 13 16.09 Partly Cloudy SCT085 13 -3 33% 75.74 0.0
07 21:15 N 13 16.09 Mostly Cloudy BKN090 13 -3 33% 75.72 0.0
07 20:55 N 13 16.09 Mostly Cloudy BKN090 14 -3 31% 75.69 0.0
07 20:35 NE 11 16.09 Mostly Cloudy BKN090 15 -2 31% 75.67 0.0
07 20:15 NW 9 16.09 Mostly Cloudy BKN090 17 -3 25% 75.64 0.0
07 19:55 NW 9 16.09 A Few Clouds FEW090 17 -2 27% 75.62 0.0
07 19:35 NW 11 16.09 Fair CLR 17 -2 27% 75.62 0.0
07 19:15 N 17 16.09 Fair CLR 18 -1 28% 75.62 0.0
07 18:55 N 15 G 24 14.48 Partly Cloudy SCT090 19 -2 24% 75.62 0.0
07 18:35 NW 15 16.09 Mostly Cloudy BKN090 20 -2 23% 75.62 0.0
07 18:15 NW 15 G 26 14.48 Fair CLR 19 -1 26% 75.62 0.0
07 17:55 NW 9 16.09 A Few Clouds FEW085 19 0 28% 75.62 0.0
07 17:35 NW 15 16.09 Mostly Cloudy BKN085 19 0 28% 75.62 0.0
07 17:15 NW 7 G 22 16.09 Partly Cloudy SCT085 20 1 28% 75.62 0.0
07 16:55 NW 15 G 30 16.09 Partly Cloudy SCT085 19 1 30% 75.64 0.0
07 16:35 Vrbl 6 G 24 16.09 A Few Clouds FEW095 19 -1 26% 75.64 0.0
07 16:15 W 15 G 28 16.09 Fair CLR 19 0 28% 75.67 0.0
07 15:55 NW 19 G 30 16.09 Fair CLR 19 0 28% 75.69 0.0
07 15:35 NW 17 G 31 16.09 Fair CLR 18 0 30% 75.69 0.0
07 15:15 Vrbl 9 G 22 16.09 Fair CLR 18 -1 28% 75.72 0.0
07 14:35 W 13 G 22 16.09 Fair CLR 17 0 32% 75.77 0.0
07 14:15 N 11 G 26 16.09 Partly Cloudy SCT095 17 2 37% 75.77 0.0
07 13:55 W 13 16.09 Mostly Cloudy BKN100 17 1 34% 75.77 0.0
07 13:35 Vrbl 9 G 28 16.09 Partly Cloudy SCT100 16 3 42% 75.79 0.0
07 13:15 Vrbl 6 16.09 Partly Cloudy SCT095 15 2 42% 75.79 0.0
07 12:55 Vrbl 9 16.09 Mostly Cloudy BKN090 15 3 45% 75.82 0.0
07 12:15 SW 20 16.09 Partly Cloudy SCT090 14 5 55% 75.87 0.0
07 11:55 SW 15 G 31 16.09 Partly Cloudy SCT095 14 4 51% 75.87 0.0
07 11:35 SW 15 16.09 Partly Cloudy SCT095 14 4 51% 75.87 0.0
07 10:55 SW 19 16.09 Mostly Cloudy FEW065 BKN090 12 4 58% 75.87 0.0
07 10:35 S 17 G 26 16.09 Partly Cloudy SCT095 12 4 58% 75.84 0.0
07 10:15 SW 20 16.09 Partly Cloudy FEW080 SCT095 11 4 62% 75.87 0.0
07 09:55 S 17 16.09 Partly Cloudy SCT100 SCT120 10 5 71% 8 75.84 0.0
07 09:35 S 13 16.09 Mostly Cloudy FEW075 BKN100 10 5 71% 8 75.87 0.0
07 09:15 S 15 16.09 Mostly Cloudy FEW075 BKN090 9 4 71% 7 75.9 0.0
07 08:55 S 9 16.09 Mostly Cloudy SCT034 SCT050 BKN075 9 4 71% 8 75.9 0.0 0.03
07 08:40 W 17 G 44 8.05 Overcast with Haze SCT029 BKN038 OVC055 9 1 58% 7 75.92 0.0
07 08:15 SW 19 G 28 11.27 Light Rain SCT029 SCT039 BKN055 8 1 62% 5 75.92 0.0
07 07:55 W 24 16.09 Mostly Cloudy FEW043 SCT055 BKN075 9 0 54% 6 75.9 0.0
07 07:35 SW 15 16.09 Partly Cloudy FEW047 SCT055 7 0 61% 5 75.87 0.0
07 07:15 SW 19 14.48 Light Rain FEW029 SCT043 BKN049 7 0 61% 4 75.87 0.0
07 06:55 SW 15 14.48 Mostly Cloudy FEW028 SCT038 BKN055 7 -1 57% 5 75.9 0.0
07 06:35 SW 9 16.09 Overcast FEW049 BKN060 OVC070 7 -3 49% 5 75.84 0.0
07 05:50 S 6 16.09 Overcast FEW060 OVC070 6 -3 53% 75.87 0.0
07 05:35 S 7 16.09 Overcast FEW070 BKN075 OVC095 6 -3 53% 5 75.87 0.0
07 05:15 S 9 16.09 Overcast BKN075 OVC095 6 -4 49% 4 75.87 0.0
07 04:55 S 7 16.09 Overcast OVC075 6 -4 49% 5 75.9 0.0
07 04:35 S 7 16.09 Overcast BKN075 OVC095 6 -4 49% 5 75.9 0.0
07 04:15 S 9 16.09 Overcast FEW065 SCT075 OVC090 6 -4 49% 4 75.92 0.0
07 03:55 S 11 16.09 Overcast FEW060 OVC075 8 -5 40% 6 75.95 0.0
07 03:35 SW 11 16.09 Overcast FEW050 FEW065 OVC075 8 -4 43% 6 76 0.0
07 03:15 SW 15 16.09 Overcast FEW060 OVC075 8 -5 40% 6 76 0.0
07 02:55 SW 15 16.09 Overcast FEW060 OVC075 8 -5 40% 6 76 0.0
07 02:35 SW 15 16.09 Overcast FEW060 SCT070 OVC080 7 -5 43% 5 76.02 0.0
07 02:15 SW 9 16.09 Overcast FEW065 BKN080 OVC095 7 -5 43% 5 76.02 0.0
07 01:55 SW 11 16.09 Overcast FEW065 SCT075 OVC090 7 -5 43% 5 76.05 0.0
07 01:35 S 11 16.09 Overcast SCT080 OVC095 7 -5 43% 5 76.05 0.0
07 01:15 SW 9 16.09 Overcast FEW080 OVC095 7 -6 39% 5 76.05 0.0
07 00:55 SW 9 16.09 Overcast FEW080 OVC090 6 -6 42% 4 76.07 0.0
07 00:35 SW 9 16.09 Mostly Cloudy BKN090 7 -6 39% 5 76.07 0.0
07 00:15 SW 11 16.09 A Few Clouds FEW090 7 -6 39% 5 76.07 0.0
06 23:35 SW 7 16.09 A Few Clouds FEW085 8 -6 37% 7 76.1 0.0
06 23:15 SW 11 16.09 A Few Clouds FEW085 8 -6 37% 6 76.1 0.0
06 22:55 SW 9 16.09 Fair CLR 8 -6 37% 7 76.12 0.0
06 22:35 SW 9 16.09 Fair CLR 8 -6 37% 7 76.12 0.0
06 22:15 SW 11 16.09 Fair CLR 9 -6 34% 8 76.15 0.0
06 21:55 W 6 16.09 Fair CLR 9 -6 34% 76.15 0.0
06 21:35 SW 6 16.09 Fair CLR 9 -6 34% 76.15 0.0
06 20:55 W 9 16.09 Fair CLR 10 -6 32% 9 76.12 0.0
06 20:35 W 11 16.09 Fair CLR 10 -6 32% 9 76.12 0.0
06 20:15 W 13 0.00 Fair CLR 11 -6 30% 76.12 0.0
06 19:55 W 13 16.09 Fair CLR 11 -6 30% 76.12 0.0
06 19:35 NW 15 G 28 16.09 A Few Clouds FEW080 12 -6 28% 76.12 0.0
06 19:15 W 19 G 30 16.09 A Few Clouds FEW085 12 -7 26% 76.15 0.0
06 18:55 NW 24 G 37 16.09 Mostly Cloudy BKN080 13 -6 26% 76.15 0.0
06 18:35 NW 20 16.09 Overcast OVC080 12 -7 26% 76.15 0.0
06 18:15 W 22 G 37 16.09 Overcast OVC080 12 -7 26% 76.17 0.0
06 17:55 W 19 G 30 16.09 Overcast OVC080 13 -6 26% 76.17 0.0
06 17:35 NW 22 G 31 16.09 Mostly Cloudy BKN080 13 -5 28% 76.17 0.0
06 17:15 NW 22 G 31 16.09 Mostly Cloudy BKN080 12 -6 28% 76.17 0.0
06 16:55 NW 30 16.09 Mostly Cloudy BKN080 12 -6 28% 76.17 0.0
06 16:35 NW 26 G 48 16.09 Partly Cloudy SCT080 13 -6 26% 76.17 0.0
06 16:15 W 20 G 31 16.09 Partly Cloudy SCT075 SCT080 12 -6 28% 76.2 0.0
06 15:55 NW 26 G 41 16.09 Partly Cloudy SCT075 11 -5 32% 76.23 0.0
06 15:35 NW 20 G 43 16.09 Overcast BKN075 OVC085 11 -5 32% 76.23 0.0
06 15:15 NW 22 G 37 16.09 Mostly Cloudy BKN075 BKN085 12 -5 30% 76.25 0.0
06 14:55 W 30 G 41 16.09 Mostly Cloudy BKN070 BKN080 11 -5 32% 76.25 0.0
06 14:40 NW 30 G 44 16.09 Mostly Cloudy SCT070 BKN080 13 -4 31% 76.25 0.0
06 14:15 NW 28 G 41 16.09 Mostly Cloudy SCT070 BKN080 11 -4 35% 76.25 0.0
06 13:55 NW 31 16.09 Mostly Cloudy SCT070 BKN080 11 -5 32% 76.28 0.0
06 13:35 NW 26 G 41 16.09 Mostly Cloudy BKN070 BKN080 11 -5 32% 76.28 0.0
06 13:15 W 24 G 37 16.09 Mostly Cloudy BKN070 11 -5 32% 76.28 0.0
06 12:55 NW 28 16.09 Overcast OVC070 10 -5 35% 7 76.3 0.0
06 12:35 NW 33 16.09 Overcast and Breezy BKN070 OVC075 11 -5 32% 76.3 0.0
06 12:15 W 19 G 31 16.09 Overcast OVC070 10 -5 35% 8 76.33 0.0
06 11:50 NW 24 16.09 Overcast OVC070 9 -5 37% 6 76.33 0.0
06 10:55 NW 19 G 31 16.09 Mostly Cloudy BKN060 BKN070 9 -4 40% 7 76.3 0.0
06 10:35 NW 22 G 31 16.09 Partly Cloudy SCT055 SCT070 10 -4 37% 7 76.33 0.0
06 10:15 NW 17 G 28 16.09 Fair CLR 9 -3 43% 7 76.33 0.0
06 09:55 NW 9 G 24 16.09 Fair CLR 8 -3 46% 7 76.33 0.0
06 09:35 NW 11 G 24 16.09 Fair CLR 8 -3 46% 6 76.33 0.0
06 09:15 NW 13 16.09 Fair CLR 8 -4 43% 6 76.3 0.0
06 08:55 NW 13 16.09 Fair CLR 7 -3 49% 5 76.3 0.0
06 08:35 N 13 16.09 Fair CLR 7 -4 46% 5 76.28 0.0
06 08:15 NW 9 16.09 Fair CLR 6 -3 53% 4 76.25 0.0
06 07:55 NW 11 16.09 Fair CLR 6 -3 53% 4 76.25 0.0
06 07:35 N 11 16.09 Fair CLR 5 -2 61% 3 76.25 0.0
06 07:15 NW 13 16.09 Fair CLR 4 -3 61% 1 76.25 0.0
06 06:55 NW 9 16.09 Fair CLR 3 -3 65% 1 76.23 0.0
06 06:35 NW 7 16.09 Fair CLR 3 -4 60% 1 76.2 0.0
06 06:15 NW 7 16.09 Fair CLR 3 -4 60% 1 76.17 0.0
06 05:55 NW 9 16.09 Fair CLR 3 -4 60% 1 76.15 0.0
06 05:35 NW 9 16.09 Fair CLR 3 -3 65% 1 76.15 0.0
06 04:30 N 11 16.09 Fair CLR 4 -3 61% 2 76.12 0.0
06 04:15 N 9 16.09 NULL NULL 4 -3 61% 2 76.12 0.0
06 03:55 N 11 16.09 NULL NULL 4 -3 61% 2 76.12 0.0
06 03:35 N 11 16.09 NULL NULL 4 -3 61% 2 76.1 0.0
06 03:15 N 13 16.09 Fair CLR 4 -4 56% 1 76.07 0.0
06 02:55 N 11 16.09 Fair CLR 4 -4 56% 2 76.07 0.0
06 02:35 NW 11 16.09 Fair CLR 4 -4 56% 2 76.07 0.0
06 02:15 NW 11 16.09 Fair CLR 5 -4 53% 3 76.07 0.0
06 01:55 NW 11 16.09 Fair CLR 5 -5 49% 3 76.07 0.0
06 01:35 NW 9 16.09 Fair CLR 5 -5 49% 3 76.07 0.0
06 01:15 NW 9 16.09 NULL NULL 5 -5 49% 3 76.05 0.0
06 00:55 N 9 16.09 Fair CLR 6 -5 46% 4 76.05 0.0
06 00:35 NW 9 16.09 Fair CLR 5 -4 53% 3 76.02 0.0
06 00:15 NW 11 16.09 Fair CLR 5 -4 53% 3 76.02 0.0
05 23:55 N 13 16.09 A Few Clouds FEW049 6 -4 49% 4 76 0.0
05 23:35 N 11 16.09 Fair CLR 6 -4 49% 4 75.97 0.0
05 23:15 N 13 16.09 Fair CLR 6 -4 49% 4 75.97 0.0
05 22:55 N 13 16.09 Fair CLR 7 -4 46% 5 75.97 0.0
05 22:35 N 17 16.09 Fair CLR 8 -4 43% 6 75.95 0.0
05 22:10 NW 17 16.09 Fair CLR 8 -5 40% 6 75.95 0.0
05 21:55 NW 19 16.09 Fair CLR 9 -5 37% 7 75.92 0.0
05 21:35 NW 15 16.09 Fair CLR 9 -5 37% 7 75.92 0.0
05 21:15 NW 20 16.09 Fair CLR 9 -5 37% 6 75.9 0.0
05 20:55 NW 20 G 31 16.09 Fair CLR 10 -5 35% 8 75.9 0.0
05 20:35 NW 20 G 31 16.09 Fair CLR 11 -5 32% 75.87 0.0
05 20:15 NW 22 G 33 16.09 Fair CLR 11 -5 32% 75.84 0.0
05 19:55 N 22 16.09 Fair CLR 11 -5 32% 75.82 0.0
05 19:35 NW 24 G 35 16.09 Fair CLR 12 -6 28% 75.79 0.0
05 19:15 NW 22 G 35 16.09 Fair CLR 12 -5 30% 75.79 0.0
05 18:55 NW 22 G 35 16.09 A Few Clouds FEW080 12 -5 30% 75.77 0.0
05 18:35 NW 28 G 37 16.09 Fair CLR 13 -5 28% 75.77 0.0
05 18:15 NW 26 G 39 16.09 Fair CLR 13 -5 28% 75.74 0.0
05 17:55 NW 30 4.83 Fair with Haze CLR 13 -5 28% 75.74 0.0
05 17:35 NW 26 G 37 16.09 A Few Clouds FEW080 13 -5 28% 75.74 0.0
05 17:15 NW 26 G 37 16.09 A Few Clouds FEW080 14 -5 27% 75.72 0.0
05 16:55 W 24 G 37 16.09 Fair CLR 14 -5 27% 75.74 0.0
05 16:35 NW 26 G 46 16.09 Fair CLR 13 -4 31% 75.74 0.0
05 16:15 W 26 G 43 16.09 Fair CLR 14 -5 27% 75.77 0.0
05 15:55 W 26 G 43 16.09 Fair CLR 14 -5 27% 75.77 0.0
05 15:35 NW 28 G 41 16.09 Fair CLR 14 -5 27% 75.77 0.0
05 15:15 W 35 G 44 16.09 Fair and Breezy CLR 14 -5 27% 75.79 0.0
05 14:55 NW 28 G 43 16.09 A Few Clouds FEW080 14 -4 29% 75.79 0.0
05 14:35 NW 19 G 46 16.09 A Few Clouds FEW080 14 -3 31% 75.79 0.0
05 14:15 W 31 16.09 A Few Clouds FEW075 14 -4 29% 75.79 0.0
05 13:55 NW 30 G 43 16.09 Mostly Cloudy BKN075 14 -3 31% 75.82 0.0
05 13:35 W 28 G 43 16.09 Mostly Cloudy BKN075 14 -4 29% 75.82 0.0
05 13:15 W 22 G 37 16.09 Partly Cloudy SCT075 14 -4 29% 75.82 0.0
05 12:55 W 17 G 31 16.09 Partly Cloudy SCT070 13 -4 31% 75.82 0.0
05 12:35 W 24 G 39 16.09 Mostly Cloudy BKN070 14 -3 31% 75.84 0.0
05 12:15 W 19 G 30 16.09 Mostly Cloudy BKN070 13 -3 33% 75.84 0.0
05 11:55 NW 20 G 33 16.09 Mostly Cloudy BKN070 13 -3 33% 75.84 0.0
05 11:35 NW 19 G 35 16.09 Mostly Cloudy BKN070 12 -3 35% 75.84 0.0
05 11:15 NW 22 G 31 16.09 Partly Cloudy SCT070 13 -3 33% 75.84 0.0
05 10:35 NW 20 G 37 16.09 Mostly Cloudy BKN060 BKN075 11 -3 38% 75.84 0.0
05 10:15 NW 20 16.09 Partly Cloudy SCT065 11 -2 41% 75.87 0.0
05 09:55 N 19 16.09 Fair CLR 11 -2 41% 75.84 0.0
05 09:35 NW 9 G 22 16.09 Fair CLR 11 -3 38% 75.87 0.0
05 09:15 Calm 16.09 Fair CLR 10 -3 40% 75.84 0.0
05 08:55 Calm 16.09 Fair CLR 10 -2 43% 75.82 0.0
05 08:35 NW 7 16.09 Fair CLR 9 -2 46% 8 75.79 0.0
05 08:15 Vrbl 6 G 19 16.09 Fair CLR 9 -2 46% 75.79 0.0
05 07:55 Calm 16.09 Fair CLR 9 -2 46% 75.79 0.0
05 07:35 Calm 16.09 Fair CLR 8 2 66% 75.79 0.0
05 07:15 Calm 16.09 Fair CLR 6 0 66% 75.82 0.0
Date Time (cdt) Wind (kph) Vis. (km) Weather Sky Cond. Air Dwpt Max. Min. Relative Humidity Wind Chill (°C) Heat Index (°C) altimeter (cm) sea level (mb) 1 hr 3 hr 6 hr
6 hour
Temperature (ºC) Pressure Precipitation (cm)